createdAt,value
2019-01-12T00:00:13.393Z,0.00
2019-01-12T00:01:13.382Z,0.00
2019-01-12T00:02:13.317Z,0.00
2019-01-12T00:03:13.311Z,0.00
2019-01-12T00:04:13.307Z,0.00
2019-01-12T00:05:13.329Z,0.00
2019-01-12T00:06:13.341Z,0.00
2019-01-12T00:07:13.279Z,0.00
2019-01-12T00:08:13.267Z,0.00
2019-01-12T00:09:13.260Z,0.00
2019-01-12T00:10:13.261Z,0.00
2019-01-12T00:11:13.246Z,0.00
2019-01-12T00:12:13.234Z,0.00
2019-01-12T00:13:13.269Z,0.00
2019-01-12T00:14:13.248Z,0.00
2019-01-12T00:15:13.267Z,0.00
2019-01-12T00:16:13.199Z,0.00
2019-01-12T00:17:13.192Z,0.00
2019-01-12T00:18:13.183Z,0.00
2019-01-12T00:19:13.200Z,0.00
2019-01-12T00:20:13.167Z,0.00
2019-01-12T00:21:13.173Z,0.00
2019-01-12T00:22:13.151Z,0.00
2019-01-12T00:23:13.148Z,0.00
2019-01-12T00:24:13.164Z,0.00
2019-01-12T00:25:13.128Z,0.00
2019-01-12T00:26:13.121Z,0.00
2019-01-12T00:27:13.117Z,0.00
2019-01-12T00:28:13.114Z,0.00
2019-01-12T00:29:13.094Z,0.00
2019-01-12T00:30:13.148Z,0.00
2019-01-12T00:31:13.082Z,0.00
2019-01-12T00:32:13.069Z,0.00
2019-01-12T00:33:13.089Z,0.00
2019-01-12T00:34:13.053Z,0.00
2019-01-12T00:35:13.074Z,0.00
2019-01-12T00:36:13.037Z,0.00
2019-01-12T00:37:13.039Z,0.00
2019-01-12T00:38:13.046Z,0.00
2019-01-12T00:39:13.042Z,0.00
2019-01-12T00:40:13.042Z,0.00
2019-01-12T00:41:13.806Z,0.00
2019-01-12T00:42:13.038Z,0.00
2019-01-12T00:43:13.016Z,0.00
2019-01-12T00:44:12.975Z,0.00
2019-01-12T00:45:12.971Z,0.00
2019-01-12T00:46:12.955Z,0.00
2019-01-12T00:47:12.948Z,0.00
2019-01-12T00:48:12.939Z,0.00
2019-01-12T00:49:12.928Z,0.00
2019-01-12T00:50:12.924Z,0.00
2019-01-12T00:51:12.918Z,0.00
2019-01-12T00:52:12.907Z,0.00
2019-01-12T00:53:12.917Z,0.00
2019-01-12T00:54:12.915Z,0.00
2019-01-12T00:55:12.908Z,0.00
2019-01-12T00:56:12.874Z,0.00
2019-01-12T00:57:12.880Z,0.00
2019-01-12T00:58:12.876Z,0.00
2019-01-12T00:59:12.857Z,0.00
2019-01-12T01:00:12.873Z,0.00
2019-01-12T01:01:12.872Z,0.00
2019-01-12T01:02:12.825Z,0.00
2019-01-12T01:03:12.814Z,0.00
2019-01-12T01:04:12.814Z,0.00
2019-01-12T01:05:12.833Z,0.00
2019-01-12T01:06:12.814Z,0.00
2019-01-12T01:07:12.812Z,0.00
2019-01-12T01:08:12.782Z,0.00
2019-01-12T01:09:12.771Z,0.00
2019-01-12T01:10:12.789Z,0.00
2019-01-12T01:11:12.762Z,0.00
2019-01-12T01:12:12.777Z,0.00
2019-01-12T01:13:12.735Z,0.00
2019-01-12T01:14:12.728Z,0.00
2019-01-12T01:15:12.720Z,0.00
2019-01-12T01:16:12.713Z,0.00
2019-01-12T01:17:12.701Z,0.00
2019-01-12T01:18:12.716Z,0.00
2019-01-12T01:19:12.686Z,0.00
2019-01-12T01:20:12.696Z,0.00
2019-01-12T01:21:12.696Z,0.00
2019-01-12T01:22:12.689Z,0.00
2019-01-12T01:23:12.677Z,0.00
2019-01-12T01:24:12.647Z,0.00
2019-01-12T01:25:12.643Z,0.00
2019-01-12T01:26:12.632Z,0.00
2019-01-12T01:27:12.637Z,0.00
2019-01-12T01:28:12.657Z,0.00
2019-01-12T01:29:12.612Z,0.00
2019-01-12T01:30:12.603Z,0.00
2019-01-12T01:31:12.600Z,0.00
2019-01-12T01:32:12.591Z,0.00
2019-01-12T01:33:12.582Z,0.00
2019-01-12T01:34:12.572Z,0.00
2019-01-12T01:35:12.625Z,0.00
2019-01-12T01:36:12.553Z,0.00
2019-01-12T01:37:12.550Z,0.00
2019-01-12T01:38:12.542Z,0.00
2019-01-12T01:39:12.527Z,0.00
2019-01-12T01:40:12.522Z,0.00
2019-01-12T01:41:12.544Z,0.00
2019-01-12T01:42:12.573Z,0.00
2019-01-12T01:43:12.497Z,0.00
2019-01-12T01:44:12.493Z,0.00
2019-01-12T01:45:12.482Z,0.00
2019-01-12T01:46:12.471Z,0.00
2019-01-12T01:47:12.465Z,0.00
2019-01-12T01:48:12.459Z,0.00
2019-01-12T01:49:12.450Z,0.00
2019-01-12T01:50:12.446Z,0.00
2019-01-12T01:51:12.440Z,0.00
2019-01-12T01:52:12.426Z,0.00
2019-01-12T01:53:12.423Z,0.00
2019-01-12T01:54:12.410Z,0.00
2019-01-12T01:55:12.454Z,0.00
2019-01-12T01:56:12.394Z,0.00
2019-01-12T01:57:12.390Z,0.00
2019-01-12T01:58:12.390Z,0.00
2019-01-12T01:59:12.372Z,0.00
2019-01-12T02:00:12.365Z,0.00
2019-01-12T02:01:12.354Z,0.00
2019-01-12T02:02:12.401Z,0.00
2019-01-12T02:03:12.336Z,0.00
2019-01-12T02:04:12.327Z,0.00
2019-01-12T02:05:12.343Z,0.00
2019-01-12T02:06:12.317Z,0.00
2019-01-12T02:07:12.303Z,0.00
2019-01-12T02:08:12.299Z,0.00
2019-01-12T02:09:12.290Z,0.00
2019-01-12T02:10:12.283Z,0.00
2019-01-12T02:11:12.270Z,0.00
2019-01-12T02:12:12.265Z,0.00
2019-01-12T02:13:12.275Z,0.00
2019-01-12T02:14:14.215Z,0.00
2019-01-12T02:15:12.240Z,0.00
2019-01-12T02:16:12.233Z,0.00
2019-01-12T06:54:48.018Z,0.00
2019-01-12T06:55:48.998Z,0.00
2019-01-12T06:57:41.245Z,0.00
2019-01-12T06:58:41.324Z,0.00
2019-01-12T07:00:42.393Z,0.00
2019-01-12T07:37:40.687Z,5.63
2019-01-12T07:38:41.199Z,5.63
2019-01-12T07:41:11.495Z,5.63
2019-01-12T07:42:11.604Z,11.25
2019-01-12T07:48:08.512Z,22.50
2019-01-12T07:49:13.552Z,22.50
2019-01-12T07:51:00.598Z,22.50
2019-01-12T07:51:59.852Z,16.88
2019-01-12T07:56:51.597Z,22.50
2019-01-12T07:57:51.638Z,22.50
2019-01-12T08:24:03.174Z,61.88
2019-01-12T08:25:02.348Z,50.63
2019-01-12T08:26:56.725Z,39.38
2019-01-12T08:27:55.148Z,45.00
2019-01-12T08:51:00.943Z,39.38
2019-01-12T08:51:45.228Z,45.00
2019-01-12T08:55:14.689Z,61.88
2019-01-12T08:56:09.169Z,67.50
2019-01-12T08:59:38.831Z,78.75
2019-01-12T09:02:34.339Z,56.25
2019-01-12T09:03:31.124Z,50.63
2019-01-12T09:04:30.694Z,61.88
2019-01-12T09:05:31.102Z,67.50
2019-01-12T09:06:30.168Z,78.75
2019-01-12T09:07:31.560Z,73.13
2019-01-12T09:08:41.628Z,73.13
2019-01-12T09:09:41.118Z,73.13
2019-01-12T09:11:23.645Z,90.00
2019-01-12T09:12:24.035Z,90.00
2019-01-12T09:14:17.502Z,73.13
2019-01-12T09:15:17.613Z,56.25
2019-01-12T09:17:10.449Z,50.63
2019-01-12T09:18:10.339Z,45.00
2019-01-12T09:20:11.567Z,45.00
2019-01-12T09:21:03.381Z,45.00
2019-01-12T09:22:03.180Z,39.38
2019-01-12T09:23:03.224Z,45.00
2019-01-12T09:24:03.297Z,50.63
2019-01-12T09:25:03.050Z,61.88
2019-01-12T09:26:03.001Z,50.63
2019-01-12T09:27:02.986Z,50.63
2019-01-12T09:28:03.009Z,56.25
2019-01-12T09:30:17.398Z,50.63
2019-01-12T09:31:10.989Z,50.63
2019-01-12T09:32:11.325Z,50.63
2019-01-12T09:33:10.623Z,56.25
2019-01-12T09:34:10.563Z,61.88
2019-01-12T09:35:10.836Z,61.88
2019-01-12T09:36:31.462Z,73.13
2019-01-12T09:37:10.371Z,61.88
2019-01-12T09:38:10.361Z,67.50
2019-01-12T09:39:10.365Z,61.88
2019-01-12T09:40:10.353Z,56.25
2019-01-12T09:41:10.339Z,50.63
2019-01-12T09:43:42.930Z,56.25
2019-01-12T09:44:43.931Z,56.25
2019-01-12T09:46:37.561Z,50.63
2019-01-12T09:47:38.158Z,50.63
2019-01-12T09:49:31.487Z,39.38
2019-01-12T09:50:30.668Z,33.75
2019-01-12T09:52:24.392Z,28.13
2019-01-12T09:53:24.160Z,28.13
2019-01-12T09:55:17.548Z,33.75
2019-01-12T09:56:17.565Z,33.75
2019-01-12T09:58:10.365Z,33.75
2019-01-12T09:59:12.639Z,33.75
2019-01-12T10:01:03.856Z,33.75
2019-01-12T10:02:03.798Z,33.75
2019-01-12T10:03:57.864Z,22.50
2019-01-12T10:04:57.655Z,22.50
2019-01-12T10:06:51.133Z,22.50
2019-01-12T10:07:51.147Z,22.50
2019-01-12T10:09:43.924Z,16.88
2019-01-12T10:10:44.056Z,16.88
2019-01-12T10:12:37.823Z,22.50
2019-01-12T10:13:38.423Z,22.50
2019-01-12T10:14:37.774Z,22.50
2019-01-12T10:15:37.708Z,22.50
2019-01-12T10:16:37.645Z,22.50
2019-01-12T10:17:37.583Z,22.50
2019-01-12T10:18:37.561Z,22.50
2019-01-12T10:19:37.555Z,22.50
2019-01-12T10:20:37.545Z,22.50
2019-01-12T10:21:37.520Z,22.50
2019-01-12T10:22:37.603Z,22.50
2019-01-12T10:23:37.505Z,22.50
2019-01-12T10:24:37.535Z,22.50
2019-01-12T10:25:37.494Z,22.50
2019-01-12T10:26:37.497Z,22.50
2019-01-12T10:27:37.561Z,16.88
2019-01-12T10:28:37.479Z,22.50
2019-01-12T10:36:12.684Z,22.50
2019-01-12T10:37:12.503Z,22.50
2019-01-12T10:39:05.857Z,22.50
2019-01-12T10:40:05.925Z,22.50
2019-01-12T10:41:59.864Z,28.13
2019-01-12T10:43:00.367Z,33.75
2019-01-12T10:44:52.217Z,33.75
2019-01-12T10:45:52.188Z,33.75
2019-01-12T10:46:54.720Z,33.75
2019-01-12T10:47:51.638Z,33.75
2019-01-12T10:48:51.646Z,33.75
2019-01-12T10:49:51.390Z,33.75
2019-01-12T10:50:51.618Z,33.75
2019-01-12T10:51:51.181Z,33.75
2019-01-12T10:52:51.153Z,33.75
2019-01-12T10:53:51.173Z,28.13
2019-01-12T10:54:51.167Z,28.13
2019-01-12T10:55:51.135Z,33.75
2019-01-12T10:56:51.132Z,33.75
2019-01-12T10:57:51.116Z,33.75
2019-01-12T10:58:51.197Z,33.75
2019-01-12T10:59:51.098Z,33.75
2019-01-12T11:00:51.133Z,33.75
2019-01-12T11:01:51.088Z,33.75
2019-01-12T11:02:51.094Z,28.13
2019-01-12T11:03:51.089Z,22.50
2019-01-12T11:04:51.062Z,28.13
2019-01-12T11:05:51.060Z,28.13
2019-01-12T11:06:51.087Z,28.13
2019-01-12T11:07:51.049Z,28.13
2019-01-12T11:08:51.040Z,33.75
2019-01-12T11:09:51.033Z,39.38
2019-01-12T11:10:51.028Z,45.00
2019-01-12T11:11:51.015Z,45.00
2019-01-12T11:12:51.006Z,50.63
2019-01-12T11:13:51.018Z,56.25
2019-01-12T11:14:50.990Z,61.88
2019-01-12T11:15:50.986Z,78.75
2019-01-12T11:16:51.005Z,78.75
2019-01-12T11:17:50.973Z,78.75
2019-01-12T11:18:50.969Z,73.13
2019-01-12T11:19:50.991Z,78.75
2019-01-12T11:20:50.975Z,78.75
2019-01-12T11:21:50.975Z,78.75
2019-01-12T11:22:50.941Z,84.38
2019-01-12T11:23:50.931Z,78.75
2019-01-12T11:24:50.922Z,73.13
2019-01-12T11:25:50.928Z,67.50
2019-01-12T11:26:50.934Z,61.88
2019-01-12T11:27:50.901Z,50.63
2019-01-12T11:28:50.894Z,50.63
2019-01-12T11:29:50.885Z,45.00
2019-01-12T11:30:52.796Z,45.00
2019-01-12T11:31:52.794Z,39.38
2019-01-12T11:32:50.901Z,33.75
2019-01-12T11:33:52.826Z,33.75
2019-01-12T11:36:49.320Z,39.38
2019-01-12T11:39:21.438Z,39.38
2019-01-12T11:40:21.927Z,39.38
2019-01-12T11:42:14.588Z,45.00
2019-01-12T11:43:14.189Z,45.00
2019-01-12T11:45:10.688Z,50.63
2019-01-12T11:46:07.640Z,45.00
2019-01-12T11:48:00.593Z,45.00
2019-01-12T11:49:01.020Z,50.63
2019-01-12T11:50:53.232Z,50.63
2019-01-12T11:51:53.258Z,45.00
2019-01-12T11:53:47.747Z,45.00
2019-01-12T11:54:46.713Z,45.00
2019-01-12T11:56:40.049Z,50.63
2019-01-12T11:57:39.975Z,56.25
2019-01-12T11:58:39.961Z,56.25
2019-01-12T11:59:41.272Z,56.25
2019-01-12T12:00:39.914Z,67.50
2019-01-12T12:01:39.893Z,73.13
2019-01-12T12:02:39.867Z,84.38
2019-01-12T12:03:39.862Z,95.63
2019-01-12T12:04:39.861Z,95.63
2019-01-12T12:05:39.874Z,118.13
2019-01-12T12:06:39.837Z,118.13
2019-01-12T12:07:39.842Z,118.13
2019-01-12T12:08:39.826Z,101.25
2019-01-12T12:09:39.817Z,101.25
2019-01-12T12:10:39.804Z,112.50
2019-01-12T12:11:39.799Z,95.63
2019-01-12T12:12:39.799Z,101.25
2019-01-12T12:13:39.789Z,123.75
2019-01-12T12:14:39.787Z,123.75
2019-01-12T12:15:39.806Z,151.88
2019-01-12T12:16:39.768Z,185.63
2019-01-12T12:17:39.814Z,191.25
2019-01-12T12:18:39.752Z,202.50
2019-01-12T12:19:39.744Z,191.25
2019-01-12T12:20:39.744Z,118.13
2019-01-12T12:21:39.738Z,84.38
2019-01-12T12:22:39.728Z,73.13
2019-01-12T12:23:39.718Z,67.50
2019-01-12T12:24:39.751Z,56.25
2019-01-12T12:25:39.703Z,50.63
2019-01-12T12:26:39.694Z,45.00
2019-01-12T12:27:39.700Z,45.00
2019-01-12T12:28:39.681Z,45.00
2019-01-12T12:29:39.706Z,45.00
2019-01-12T12:30:39.668Z,39.38
2019-01-12T12:31:39.662Z,39.38
2019-01-12T12:32:39.662Z,39.38
2019-01-12T12:33:39.652Z,39.38
2019-01-12T12:34:39.644Z,39.38
2019-01-12T12:35:39.638Z,39.38
2019-01-12T12:36:39.633Z,33.75
2019-01-12T12:37:39.623Z,33.75
2019-01-12T12:38:39.611Z,39.38
2019-01-12T12:39:39.632Z,39.38
2019-01-12T12:40:39.600Z,39.38
2019-01-12T12:41:39.596Z,45.00
2019-01-12T12:42:39.588Z,50.63
2019-01-12T12:43:39.584Z,50.63
2019-01-12T12:44:39.572Z,56.25
2019-01-12T12:45:39.565Z,50.63
2019-01-12T12:46:39.555Z,50.63
2019-01-12T12:47:39.553Z,50.63
2019-01-12T12:48:39.546Z,50.63
2019-01-12T12:49:39.537Z,45.00
2019-01-12T12:50:39.528Z,45.00
2019-01-12T12:51:39.536Z,45.00
2019-01-12T12:52:39.516Z,45.00
2019-01-12T12:53:39.513Z,45.00
2019-01-12T12:54:39.542Z,45.00
2019-01-12T12:55:39.570Z,39.38
2019-01-12T12:56:39.489Z,45.00
2019-01-12T12:57:39.481Z,45.00
2019-01-12T12:58:39.474Z,39.38
2019-01-12T12:59:39.467Z,39.38
2019-01-12T13:00:39.462Z,33.75
2019-01-12T13:01:39.453Z,33.75
2019-01-12T13:02:39.468Z,33.75
2019-01-12T13:03:39.435Z,33.75
2019-01-12T13:04:39.428Z,28.13
2019-01-12T13:05:39.425Z,28.13
2019-01-12T13:06:39.415Z,28.13
2019-01-12T13:07:39.407Z,28.13
2019-01-12T13:08:39.400Z,22.50
2019-01-12T13:09:39.391Z,22.50
2019-01-12T13:10:39.441Z,22.50
2019-01-12T13:11:39.462Z,22.50
2019-01-12T13:12:39.532Z,22.50
2019-01-12T13:13:39.395Z,28.13
2019-01-12T13:14:39.374Z,28.13
2019-01-12T13:15:39.404Z,28.13
2019-01-12T13:16:39.394Z,28.13
2019-01-12T13:17:40.047Z,28.13
2019-01-12T13:18:39.347Z,28.13
2019-01-12T13:19:39.356Z,22.50
2019-01-12T13:20:39.306Z,22.50
2019-01-12T13:21:39.322Z,22.50
2019-01-12T13:22:39.346Z,22.50
2019-01-12T13:23:39.284Z,22.50
2019-01-12T13:24:39.278Z,22.50
2019-01-12T13:25:39.268Z,22.50
2019-01-12T13:26:39.261Z,22.50
2019-01-12T13:27:40.036Z,16.88
2019-01-12T13:28:39.249Z,16.88
2019-01-12T13:29:39.238Z,16.88
2019-01-12T13:30:39.229Z,16.88
2019-01-12T13:31:39.222Z,16.88
2019-01-12T13:32:39.215Z,22.50
2019-01-12T13:33:39.215Z,22.50
2019-01-12T13:34:40.646Z,22.50
2019-01-12T13:35:39.190Z,22.50
2019-01-12T13:36:39.208Z,22.50
2019-01-12T13:37:39.181Z,16.88
2019-01-12T13:38:39.169Z,16.88
2019-01-12T13:39:39.159Z,22.50
2019-01-12T13:40:39.157Z,22.50
2019-01-12T13:41:39.142Z,22.50
2019-01-12T13:42:39.139Z,22.50
2019-01-12T13:43:39.131Z,16.88
2019-01-12T13:44:39.126Z,22.50
2019-01-12T13:45:39.116Z,22.50
2019-01-12T13:46:39.103Z,22.50
2019-01-12T13:47:39.098Z,22.50
2019-01-12T13:48:39.089Z,22.50
2019-01-12T13:49:39.113Z,22.50
2019-01-12T13:50:39.102Z,22.50
2019-01-12T13:51:39.067Z,22.50
2019-01-12T13:52:46.521Z,16.88
2019-01-12T13:54:32.912Z,16.88
2019-01-12T13:55:32.860Z,22.50
2019-01-12T13:56:32.695Z,22.50
2019-01-12T13:57:33.243Z,22.50
2019-01-12T13:58:32.428Z,22.50
2019-01-12T13:59:32.347Z,22.50
2019-01-12T14:00:32.337Z,22.50
2019-01-12T14:01:32.330Z,22.50
2019-01-12T14:02:32.320Z,22.50
2019-01-12T14:03:32.314Z,22.50
2019-01-12T14:04:32.309Z,22.50
2019-01-12T14:05:32.296Z,22.50
2019-01-12T14:06:32.289Z,16.88
2019-01-12T14:07:32.280Z,16.88
2019-01-12T14:08:32.272Z,16.88
2019-01-12T14:09:32.286Z,16.88
2019-01-12T14:10:32.289Z,22.50
2019-01-12T14:11:32.248Z,22.50
2019-01-12T14:12:32.239Z,28.13
2019-01-12T14:13:32.234Z,28.13
2019-01-12T14:14:32.255Z,28.13
2019-01-12T14:15:32.215Z,33.75
2019-01-12T14:16:32.208Z,28.13
2019-01-12T14:17:32.201Z,33.75
2019-01-12T14:18:32.191Z,33.75
2019-01-12T14:19:32.212Z,39.38
2019-01-12T14:20:32.177Z,39.38
2019-01-12T14:21:32.179Z,33.75
2019-01-12T14:22:32.157Z,28.13
2019-01-12T14:23:32.149Z,22.50
2019-01-12T14:24:32.140Z,16.88
2019-01-12T14:25:32.133Z,16.88
2019-01-12T14:26:32.126Z,11.25
2019-01-12T14:27:32.118Z,11.25
2019-01-12T14:28:32.109Z,11.25
2019-01-12T14:29:32.102Z,11.25
2019-01-12T14:30:32.150Z,5.63
2019-01-12T14:31:32.091Z,5.63
2019-01-12T14:32:32.079Z,5.63
2019-01-12T14:33:32.074Z,5.63
2019-01-12T14:34:32.059Z,5.63
2019-01-12T14:35:32.048Z,5.63
2019-01-12T14:36:32.043Z,5.63
2019-01-12T14:37:32.038Z,5.63
2019-01-12T14:38:32.031Z,5.63
2019-01-12T14:39:32.018Z,5.63
2019-01-12T14:40:32.009Z,5.63
2019-01-12T14:41:32.009Z,5.63
2019-01-12T14:42:31.994Z,5.63
2019-01-12T14:43:31.989Z,11.25
2019-01-12T14:44:31.978Z,11.25
2019-01-12T14:45:31.968Z,11.25
2019-01-12T14:46:31.963Z,5.63
2019-01-12T14:47:31.955Z,5.63
2019-01-12T14:48:31.945Z,5.63
2019-01-12T14:49:31.937Z,5.63
2019-01-12T14:50:31.935Z,5.63
2019-01-12T14:51:31.919Z,5.63
2019-01-12T14:52:31.916Z,5.63
2019-01-12T14:53:31.902Z,5.63
2019-01-12T14:54:31.894Z,5.63
2019-01-12T14:55:31.889Z,5.63
2019-01-12T14:56:31.879Z,5.63
2019-01-12T14:57:31.869Z,5.63
2019-01-12T14:58:31.895Z,5.63
2019-01-12T14:59:31.862Z,5.63
2019-01-12T15:00:31.905Z,5.63
2019-01-12T15:01:31.833Z,5.63
2019-01-12T15:02:31.852Z,5.63
2019-01-12T15:03:31.830Z,5.63
2019-01-12T15:04:31.831Z,5.63
2019-01-12T15:05:31.815Z,5.63
2019-01-12T15:06:31.846Z,5.63
2019-01-12T15:07:31.791Z,5.63
2019-01-12T15:08:31.773Z,5.63
2019-01-12T15:09:31.768Z,5.63
2019-01-12T15:10:31.763Z,5.63
2019-01-12T15:11:31.752Z,5.63
2019-01-12T15:12:31.743Z,5.63
2019-01-12T15:13:31.735Z,0.00
2019-01-12T15:14:31.727Z,0.00
2019-01-12T15:15:31.717Z,0.00
2019-01-12T15:16:31.715Z,0.00
2019-01-12T15:17:31.698Z,0.00
2019-01-12T15:18:31.700Z,0.00
2019-01-12T15:19:31.709Z,0.00
2019-01-12T15:20:31.675Z,0.00
2019-01-12T15:21:31.668Z,0.00
2019-01-12T15:22:31.657Z,0.00
2019-01-12T15:23:31.649Z,0.00
2019-01-12T15:24:31.649Z,0.00
2019-01-12T15:25:31.667Z,0.00
2019-01-12T15:26:31.625Z,0.00
2019-01-12T15:27:33.529Z,0.00
2019-01-12T15:28:31.605Z,0.00
2019-01-12T15:29:31.597Z,0.00
2019-01-12T15:30:31.620Z,0.00
2019-01-12T15:31:31.579Z,0.00
2019-01-12T15:32:31.572Z,0.00
2019-01-12T15:33:31.563Z,0.00
2019-01-12T15:34:31.564Z,0.00
2019-01-12T15:35:31.544Z,0.00
2019-01-12T15:36:31.542Z,0.00
2019-01-12T15:37:31.527Z,0.00
2019-01-12T15:38:31.518Z,0.00
2019-01-12T15:39:31.509Z,0.00
2019-01-12T15:40:31.504Z,0.00
2019-01-12T15:41:38.833Z,0.00
2019-01-12T15:43:24.984Z,0.00
2019-01-12T15:44:24.864Z,0.00
2019-01-12T15:46:18.306Z,0.00
2019-01-12T15:47:18.219Z,0.00
2019-01-12T15:49:11.715Z,0.00
2019-01-12T15:51:45.574Z,0.00
2019-01-12T15:52:45.548Z,0.00
2019-01-12T15:54:39.112Z,0.00
2019-01-12T15:55:39.528Z,0.00
2019-01-12T15:56:38.966Z,0.00
2019-01-12T15:57:38.909Z,0.00
2019-01-12T15:58:52.537Z,0.00
2019-01-12T16:01:29.797Z,0.00
2019-01-12T16:02:19.422Z,0.00
2019-01-12T16:05:30.681Z,0.00
2019-01-12T16:06:31.029Z,0.00
2019-01-12T16:15:18.846Z,0.00
2019-01-12T16:16:19.936Z,0.00
2019-01-12T16:17:18.875Z,0.00
2019-01-12T16:18:20.380Z,0.00
2019-01-12T16:19:19.391Z,0.00
2019-01-12T16:40:02.728Z,0.00
2019-01-12T16:40:55.239Z,0.00
2019-01-12T16:57:06.322Z,0.00
2019-01-12T16:58:05.542Z,0.00
2019-01-12T17:00:00.092Z,0.00
2019-01-12T17:00:59.486Z,0.00
2019-01-12T17:02:58.088Z,0.00
2019-01-12T17:03:55.182Z,0.00
2019-01-12T17:04:54.886Z,0.00
2019-01-12T17:05:55.134Z,0.00
2019-01-12T17:06:55.106Z,0.00
2019-01-12T17:07:54.947Z,0.00
2019-01-12T17:08:54.907Z,0.00
2019-01-12T17:09:54.806Z,0.00
2019-01-12T17:10:56.852Z,0.00
2019-01-12T17:11:54.620Z,0.00
2019-01-12T17:12:54.613Z,0.00
2019-01-12T17:13:54.678Z,0.00
2019-01-12T17:14:54.600Z,0.00
2019-01-12T17:16:49.607Z,0.00
2019-01-12T17:17:49.557Z,0.00
2019-01-12T17:19:42.294Z,0.00
2019-01-12T17:20:42.349Z,0.00
2019-01-12T17:22:35.149Z,0.00
2019-01-12T17:23:35.222Z,0.00
2019-01-12T17:25:28.466Z,0.00
2019-01-12T17:26:30.635Z,0.00
2019-01-12T17:28:21.239Z,0.00
2019-01-12T17:29:22.959Z,0.00
2019-01-12T17:31:16.317Z,0.00
2019-01-12T17:32:17.135Z,0.00
2019-01-12T17:34:18.928Z,0.00
2019-01-12T17:35:10.875Z,0.00
2019-01-12T17:37:26.581Z,0.00
2019-01-12T17:38:26.106Z,0.00
2019-01-12T17:48:41.683Z,0.00
2019-01-12T17:59:02.297Z,0.00
2019-01-12T18:03:10.236Z,0.00
2019-01-12T18:03:56.141Z,0.00
2019-01-12T18:04:56.578Z,0.00
2019-01-12T18:11:16.427Z,0.00
2019-01-12T18:12:12.291Z,0.00
2019-01-12T18:14:09.739Z,0.00
2019-01-12T18:15:06.507Z,0.00
2019-01-12T18:17:05.163Z,0.00
2019-01-12T18:18:08.660Z,0.00
2019-01-12T18:19:57.467Z,0.00
2019-01-12T18:20:56.937Z,0.00
2019-01-12T18:22:51.367Z,0.00
2019-01-12T21:17:29.860Z,0.00
2019-01-12T21:20:33.542Z,0.00
2019-01-12T21:21:34.333Z,0.00
2019-01-12T21:23:26.875Z,0.00
2019-01-12T21:24:26.815Z,0.00
2019-01-12T21:25:26.734Z,0.00
2019-01-12T21:26:26.545Z,0.00
2019-01-12T21:27:26.587Z,0.00
2019-01-12T21:28:26.524Z,0.00
2019-01-12T21:29:26.361Z,0.00
2019-01-12T21:30:26.316Z,0.00
2019-01-12T21:31:26.287Z,0.00
2019-01-12T21:32:26.280Z,0.00
2019-01-12T21:33:26.271Z,0.00
2019-01-12T21:34:26.260Z,0.00
2019-01-12T21:35:26.250Z,0.00
2019-01-12T21:36:26.240Z,0.00
2019-01-12T21:37:26.241Z,0.00
2019-01-12T21:38:26.227Z,0.00
2019-01-12T21:39:26.214Z,0.00
2019-01-12T21:40:26.230Z,0.00
2019-01-12T21:41:26.196Z,0.00
2019-01-12T21:42:26.189Z,0.00
2019-01-12T21:43:26.190Z,0.00
2019-01-12T21:44:26.169Z,0.00
2019-01-12T21:45:26.163Z,0.00
2019-01-12T21:46:26.171Z,0.00
2019-01-12T21:47:26.148Z,0.00
2019-01-12T21:48:26.138Z,0.00
2019-01-12T21:49:26.127Z,0.00
2019-01-12T21:50:26.123Z,0.00
2019-01-12T21:51:26.110Z,0.00
2019-01-12T21:52:26.102Z,0.00
2019-01-12T21:53:26.096Z,0.00
2019-01-12T21:54:26.088Z,0.00
2019-01-12T21:55:26.087Z,0.00
2019-01-12T21:56:26.074Z,0.00
2019-01-12T21:57:26.061Z,0.00
2019-01-12T21:59:19.027Z,0.00
2019-01-12T22:00:18.934Z,0.00
2019-01-12T22:02:11.952Z,0.00
2019-01-12T22:03:11.887Z,0.00
2019-01-12T22:05:05.261Z,0.00
2019-01-12T22:06:05.216Z,0.00
2019-01-12T22:07:58.708Z,0.00
2019-01-12T22:08:58.585Z,0.00
2019-01-12T22:10:51.931Z,0.00
2019-01-12T22:11:51.420Z,0.00
2019-01-12T22:13:44.871Z,0.00
2019-01-12T22:14:52.119Z,0.00
2019-01-12T22:16:37.710Z,0.00
2019-01-12T22:17:37.661Z,0.00
2019-01-12T22:19:31.366Z,0.00
2019-01-12T22:20:31.273Z,0.00
2019-01-12T22:22:24.240Z,0.00
2019-01-12T22:23:24.094Z,0.00
2019-01-12T22:25:17.566Z,0.00
2019-01-12T22:26:17.662Z,0.00
2019-01-12T22:28:10.481Z,0.00
2019-01-12T22:29:10.339Z,0.00
2019-01-12T22:30:10.307Z,0.00
2019-01-12T22:31:10.358Z,0.00
2019-01-12T22:32:10.287Z,0.00
2019-01-12T22:33:10.275Z,0.00
2019-01-12T22:34:10.274Z,0.00
2019-01-12T22:35:10.285Z,0.00
2019-01-12T22:36:10.251Z,0.00
2019-01-12T22:37:10.247Z,0.00
2019-01-12T22:38:10.236Z,0.00
2019-01-12T22:39:10.226Z,0.00
2019-01-12T22:40:10.260Z,0.00
2019-01-12T22:41:10.210Z,0.00
2019-01-12T22:42:10.206Z,0.00
2019-01-12T22:43:10.196Z,0.00
2019-01-12T22:44:10.193Z,0.00
2019-01-12T22:45:10.181Z,0.00
2019-01-12T22:46:10.173Z,0.00
2019-01-12T22:47:10.186Z,0.00
2019-01-12T22:48:10.204Z,0.00
2019-01-12T22:49:10.176Z,0.00
2019-01-12T22:50:10.144Z,0.00
2019-01-12T22:51:10.135Z,0.00
2019-01-12T22:52:10.147Z,0.00
2019-01-12T22:53:10.226Z,0.00
2019-01-12T22:54:10.112Z,0.00
2019-01-12T22:55:11.883Z,0.00
2019-01-12T22:56:10.095Z,0.00
2019-01-12T22:57:10.092Z,0.00
2019-01-12T22:58:10.079Z,0.00
2019-01-12T22:59:10.073Z,0.00
2019-01-12T23:00:10.069Z,0.00
2019-01-12T23:01:10.694Z,0.00
2019-01-12T23:02:10.050Z,0.00
2019-01-12T23:03:10.041Z,0.00
2019-01-12T23:04:10.036Z,0.00
2019-01-12T23:05:10.025Z,0.00
2019-01-12T23:06:10.019Z,0.00
2019-01-12T23:07:11.621Z,0.00
2019-01-12T23:08:10.005Z,0.00
2019-01-12T23:09:11.120Z,0.00
2019-01-12T23:10:09.988Z,0.00
2019-01-12T23:11:09.999Z,0.00
2019-01-12T23:12:09.970Z,0.00
2019-01-12T23:13:09.965Z,0.00
2019-01-12T23:14:09.958Z,0.00
2019-01-12T23:15:09.951Z,0.00
2019-01-12T23:16:09.940Z,0.00
2019-01-12T23:17:09.938Z,0.00
2019-01-12T23:18:09.930Z,0.00
2019-01-12T23:19:09.954Z,0.00
2019-01-12T23:20:09.910Z,0.00
2019-01-12T23:21:09.905Z,0.00
2019-01-12T23:22:09.903Z,0.00
2019-01-12T23:23:09.887Z,0.00
2019-01-12T23:24:09.881Z,0.00
2019-01-12T23:25:09.871Z,0.00
2019-01-12T23:26:09.864Z,0.00
2019-01-12T23:27:09.855Z,0.00
2019-01-12T23:28:09.853Z,0.00
2019-01-12T23:29:09.841Z,0.00
2019-01-12T23:30:09.838Z,0.00
2019-01-12T23:31:09.824Z,0.00
2019-01-12T23:32:09.820Z,0.00
2019-01-12T23:33:09.808Z,0.00
2019-01-12T23:34:09.802Z,0.00
2019-01-12T23:35:09.794Z,0.00
2019-01-12T23:36:09.786Z,0.00
2019-01-12T23:37:09.782Z,0.00
2019-01-12T23:38:09.769Z,0.00
2019-01-12T23:39:09.761Z,0.00
2019-01-12T23:40:09.754Z,0.00
2019-01-12T23:41:09.748Z,0.00
2019-01-12T23:42:09.738Z,0.00
2019-01-12T23:43:09.729Z,0.00
2019-01-12T23:44:14.842Z,0.00
2019-01-12T23:45:09.714Z,0.00
2019-01-12T23:46:09.707Z,0.00
2019-01-12T23:47:09.699Z,0.00
2019-01-12T23:48:09.703Z,0.00
2019-01-12T23:49:09.683Z,0.00
2019-01-12T23:50:09.677Z,0.00
2019-01-12T23:51:09.669Z,0.00
2019-01-12T23:52:09.663Z,0.00
2019-01-12T23:53:09.654Z,0.00
2019-01-12T23:54:09.647Z,0.00
2019-01-12T23:55:09.638Z,0.00
2019-01-12T23:56:09.628Z,0.00
2019-01-12T23:57:09.628Z,0.00
2019-01-12T23:58:09.617Z,0.00
2019-01-12T23:59:09.608Z,0.00
